createdAt,value
2023-04-30T00:02:21.934Z,55.43
2023-04-30T00:04:48.936Z,55.92
2023-04-30T00:07:15.908Z,55.90
2023-04-30T00:09:42.980Z,55.64
2023-04-30T00:12:10.340Z,56.00
2023-04-30T00:14:37.399Z,56.16
2023-04-30T00:17:04.331Z,55.66
2023-04-30T00:19:31.404Z,55.88
2023-04-30T00:22:00.286Z,56.28
2023-04-30T00:24:28.114Z,55.93
2023-04-30T00:26:55.017Z,56.23
2023-04-30T00:29:21.962Z,56.25
2023-04-30T00:31:49.177Z,56.36
2023-04-30T00:34:16.480Z,56.57
2023-04-30T00:36:43.497Z,56.88
2023-04-30T00:39:10.522Z,56.33
2023-04-30T00:41:37.916Z,56.88
2023-04-30T00:44:05.102Z,56.29
2023-04-30T00:46:32.450Z,56.33
2023-04-30T00:49:02.316Z,56.97
2023-04-30T00:51:29.562Z,57.16
2023-04-30T00:53:56.931Z,57.24
2023-04-30T00:56:24.114Z,57.45
2023-04-30T00:58:54.545Z,57.46
2023-04-30T01:01:21.817Z,56.96
2023-04-30T01:03:49.186Z,56.79
2023-04-30T01:06:16.364Z,57.16
2023-04-30T01:08:44.440Z,57.45
2023-04-30T01:11:37.861Z,57.82
2023-04-30T01:14:17.770Z,57.47
2023-04-30T01:17:08.874Z,57.74
2023-04-30T01:19:42.692Z,57.78
2023-04-30T01:22:23.261Z,57.72
2023-04-30T01:25:12.427Z,58.43
2023-04-30T01:28:07.099Z,58.41
2023-04-30T01:30:35.750Z,57.97
2023-04-30T01:33:03.769Z,57.87
2023-04-30T01:35:43.345Z,59.24
2023-04-30T01:38:25.356Z,59.22
2023-04-30T01:40:58.181Z,58.86
2023-04-30T01:43:46.263Z,59.13
2023-04-30T01:46:29.797Z,59.50
2023-04-30T01:49:15.976Z,58.16
2023-04-30T01:51:47.246Z,57.93
2023-04-30T01:54:19.793Z,59.18
2023-04-30T01:56:57.923Z,59.29
2023-04-30T01:59:25.848Z,58.87
2023-04-30T02:01:56.449Z,58.90
2023-04-30T02:04:23.535Z,58.65
2023-04-30T02:06:50.550Z,59.08
2023-04-30T02:09:17.649Z,58.70
2023-04-30T02:11:44.615Z,59.32
2023-04-30T02:14:11.738Z,59.51
2023-04-30T02:16:58.792Z,59.41
2023-04-30T02:19:25.755Z,59.18
2023-04-30T02:21:53.974Z,59.46
2023-04-30T02:24:21.150Z,59.42
2023-04-30T02:26:48.412Z,59.13
2023-04-30T02:29:16.359Z,58.94
2023-04-30T02:31:43.509Z,59.09
2023-04-30T02:34:11.424Z,59.34
2023-04-30T02:36:38.761Z,59.00
2023-04-30T02:39:06.388Z,58.76
2023-04-30T02:41:33.314Z,59.30
2023-04-30T02:44:00.794Z,59.31
2023-04-30T02:46:27.905Z,58.83
2023-04-30T02:48:54.899Z,59.27
2023-04-30T02:51:21.922Z,59.21
2023-04-30T02:53:49.747Z,58.83
2023-04-30T02:56:16.751Z,59.23
2023-04-30T02:58:43.745Z,59.18
2023-04-30T03:01:10.854Z,59.23
2023-04-30T03:03:37.973Z,58.89
2023-04-30T03:06:05.380Z,58.71
2023-04-30T03:08:32.376Z,58.50
2023-04-30T03:10:59.485Z,58.91
2023-04-30T03:13:26.487Z,59.28
2023-04-30T03:16:01.223Z,59.13
2023-04-30T03:18:29.235Z,58.77
2023-04-30T03:20:56.963Z,59.20
2023-04-30T03:23:24.439Z,58.99
2023-04-30T03:25:51.941Z,59.11
2023-04-30T03:28:18.864Z,58.56
2023-04-30T03:30:45.905Z,58.44
2023-04-30T03:33:13.405Z,59.10
2023-04-30T03:35:40.547Z,58.50
2023-04-30T03:38:07.504Z,59.11
2023-04-30T03:40:34.509Z,58.68
2023-04-30T03:43:01.566Z,58.96
2023-04-30T03:45:28.742Z,58.54
2023-04-30T03:47:56.026Z,59.00
2023-04-30T03:50:23.424Z,58.44
2023-04-30T03:52:50.531Z,58.57
2023-04-30T03:55:17.672Z,58.58
2023-04-30T03:57:44.893Z,58.71
2023-04-30T04:00:13.787Z,58.09
2023-04-30T04:02:43.574Z,58.41
2023-04-30T04:05:11.704Z,58.07
2023-04-30T04:07:38.696Z,58.00
2023-04-30T04:10:06.347Z,58.23
2023-04-30T04:12:33.328Z,57.62
2023-04-30T04:15:00.492Z,57.58
2023-04-30T04:17:27.624Z,57.70
2023-04-30T04:19:55.027Z,57.59
2023-04-30T04:22:22.498Z,57.23
2023-04-30T04:24:49.736Z,57.26
2023-04-30T04:27:20.596Z,57.15
2023-04-30T04:29:48.142Z,57.20
2023-04-30T04:32:15.271Z,56.86
2023-04-30T04:34:43.810Z,57.13
2023-04-30T04:37:12.441Z,56.89
2023-04-30T04:39:39.599Z,56.84
2023-04-30T04:42:07.258Z,56.71
2023-04-30T04:44:36.484Z,56.63
2023-04-30T04:47:04.462Z,56.65
2023-04-30T04:49:31.488Z,56.51
2023-04-30T04:51:58.518Z,56.39
2023-04-30T04:54:26.108Z,56.55
2023-04-30T04:56:53.030Z,56.21
2023-04-30T04:59:20.048Z,56.35
2023-04-30T05:01:48.841Z,56.03
2023-04-30T05:04:16.074Z,56.08
2023-04-30T05:06:45.686Z,55.81
2023-04-30T05:09:13.037Z,55.69
2023-04-30T05:11:41.768Z,55.71
2023-04-30T05:14:08.862Z,54.85
2023-04-30T05:16:35.981Z,54.89
2023-04-30T05:19:02.902Z,55.15
2023-04-30T05:21:29.935Z,54.41
2023-04-30T05:23:56.856Z,54.42
2023-04-30T05:26:24.583Z,53.93
2023-04-30T05:28:52.508Z,53.58
2023-04-30T05:31:21.050Z,53.72
2023-04-30T05:33:48.512Z,53.55
2023-04-30T05:36:15.586Z,53.53
2023-04-30T05:38:42.751Z,53.89
2023-04-30T05:41:12.715Z,53.21
2023-04-30T05:43:39.677Z,53.06
2023-04-30T05:46:07.209Z,53.17
2023-04-30T05:48:34.441Z,53.11
2023-04-30T05:51:01.474Z,53.00
2023-04-30T05:53:28.452Z,52.87
2023-04-30T05:55:55.596Z,52.31
2023-04-30T05:58:22.675Z,52.52
2023-04-30T06:00:52.142Z,52.72
2023-04-30T06:03:19.788Z,52.28
2023-04-30T06:05:47.771Z,52.29
2023-04-30T06:08:15.031Z,52.07
2023-04-30T06:10:42.591Z,52.17
2023-04-30T06:13:09.755Z,52.38
2023-04-30T06:15:36.801Z,51.99
2023-04-30T06:18:04.034Z,52.38
2023-04-30T06:20:31.069Z,51.28
2023-04-30T06:22:58.092Z,51.30
2023-04-30T06:25:25.013Z,50.84
2023-04-30T06:27:54.257Z,50.75
2023-04-30T06:30:21.329Z,50.57
2023-04-30T06:32:48.599Z,50.37
2023-04-30T06:35:15.747Z,50.12
2023-04-30T06:37:42.949Z,49.63
2023-04-30T06:40:10.154Z,49.90
2023-04-30T06:42:37.076Z,48.93
2023-04-30T06:45:06.734Z,48.92
2023-04-30T06:47:38.419Z,48.90
2023-04-30T06:50:05.946Z,48.38
2023-04-30T06:52:32.895Z,48.57
2023-04-30T06:54:59.965Z,48.14
2023-04-30T06:57:27.827Z,47.50
2023-04-30T06:59:55.472Z,47.24
2023-04-30T07:02:22.698Z,46.63
2023-04-30T07:04:49.691Z,46.76
2023-04-30T07:07:16.786Z,46.09
2023-04-30T07:09:43.653Z,45.50
2023-04-30T07:12:13.744Z,45.40
2023-04-30T07:14:40.919Z,44.92
2023-04-30T07:17:07.950Z,44.95
2023-04-30T07:19:34.905Z,44.23
2023-04-30T07:22:02.022Z,44.12
2023-04-30T07:24:29.574Z,44.11
2023-04-30T07:26:56.569Z,43.86
2023-04-30T07:29:23.547Z,43.64
2023-04-30T07:31:51.800Z,43.27
2023-04-30T07:34:18.826Z,43.05
2023-04-30T07:36:45.705Z,43.06
2023-04-30T07:39:12.864Z,42.87
2023-04-30T07:41:39.860Z,42.62
2023-04-30T07:44:06.809Z,42.36
2023-04-30T07:46:33.865Z,42.44
2023-04-30T07:49:01.048Z,42.10
2023-04-30T07:51:28.213Z,42.29
2023-04-30T07:53:55.735Z,41.81
2023-04-30T07:56:22.725Z,41.70
2023-04-30T07:58:49.798Z,41.41
2023-04-30T08:01:17.240Z,41.28
2023-04-30T08:03:44.398Z,40.99
2023-04-30T08:06:11.355Z,40.75
2023-04-30T08:08:39.696Z,40.64
2023-04-30T08:11:06.694Z,40.24
2023-04-30T08:13:33.889Z,40.23
2023-04-30T08:16:01.050Z,40.27
2023-04-30T08:18:27.973Z,40.29
2023-04-30T08:20:55.016Z,40.13
2023-04-30T08:23:22.041Z,39.98
2023-04-30T08:25:49.422Z,40.09
2023-04-30T08:28:16.408Z,39.98
2023-04-30T08:30:43.796Z,39.94
2023-04-30T08:33:11.524Z,39.73
2023-04-30T08:35:38.478Z,40.06
2023-04-30T08:38:05.502Z,39.85
2023-04-30T08:40:50.102Z,39.40
2023-04-30T08:43:20.365Z,40.08
2023-04-30T08:45:48.400Z,40.03
2023-04-30T08:48:17.037Z,39.93
2023-04-30T08:50:44.000Z,40.06
2023-04-30T08:53:13.371Z,40.06
2023-04-30T08:55:40.956Z,40.27
2023-04-30T08:58:10.492Z,40.12
2023-04-30T09:00:39.232Z,40.01
2023-04-30T09:03:08.615Z,40.44
2023-04-30T09:05:38.503Z,40.79
2023-04-30T09:08:07.915Z,40.58
2023-04-30T09:10:35.782Z,40.47
2023-04-30T09:13:03.863Z,40.35
2023-04-30T09:15:32.387Z,40.53
2023-04-30T09:18:18.868Z,40.19
2023-04-30T09:21:03.095Z,40.24
2023-04-30T09:23:30.908Z,40.63
2023-04-30T09:25:58.094Z,40.56
2023-04-30T09:28:26.737Z,40.30
2023-04-30T09:30:54.518Z,40.66
2023-04-30T09:33:21.629Z,40.69
2023-04-30T09:35:49.352Z,40.77
2023-04-30T09:38:46.185Z,40.65
2023-04-30T09:41:23.732Z,40.53
2023-04-30T09:43:51.377Z,40.61
2023-04-30T09:46:20.587Z,40.79
2023-04-30T09:48:55.879Z,41.12
2023-04-30T09:51:23.134Z,40.74
2023-04-30T09:53:51.754Z,40.97
2023-04-30T09:56:24.676Z,40.36
2023-04-30T09:58:56.346Z,41.24
2023-04-30T10:01:29.846Z,40.70
2023-04-30T10:03:58.451Z,40.88
2023-04-30T10:06:27.324Z,40.80
2023-04-30T10:08:57.841Z,40.45
2023-04-30T10:11:29.075Z,40.56
2023-04-30T10:14:04.128Z,40.61
2023-04-30T10:17:04.173Z,40.49
2023-04-30T10:19:34.092Z,40.81
2023-04-30T10:22:02.497Z,41.06
2023-04-30T10:24:30.622Z,40.73
2023-04-30T10:26:58.731Z,40.69
2023-04-30T10:29:25.978Z,40.59
2023-04-30T10:31:54.862Z,40.50
2023-04-30T10:35:08.128Z,40.23
2023-04-30T10:37:44.012Z,40.54
2023-04-30T10:40:11.761Z,40.87
2023-04-30T10:42:46.449Z,40.44
2023-04-30T10:45:13.447Z,40.56
2023-04-30T10:47:45.820Z,40.20
2023-04-30T10:50:13.818Z,40.36
2023-04-30T10:52:41.138Z,40.24
2023-04-30T10:55:10.092Z,40.49
2023-04-30T10:57:48.542Z,39.73
2023-04-30T11:00:19.665Z,40.01
2023-04-30T11:02:48.950Z,39.74
2023-04-30T11:05:18.666Z,40.04
2023-04-30T11:07:56.688Z,39.38
2023-04-30T11:10:26.468Z,39.47
2023-04-30T11:12:56.083Z,39.29
2023-04-30T11:15:28.255Z,38.82
2023-04-30T11:18:02.222Z,38.49
2023-04-30T11:20:29.397Z,38.74
2023-04-30T11:23:10.083Z,38.03
2023-04-30T11:25:42.535Z,38.20
2023-04-30T11:28:17.960Z,38.11
2023-04-30T11:30:56.422Z,37.49
2023-04-30T11:33:26.022Z,38.18
2023-04-30T11:35:54.165Z,37.92
2023-04-30T11:38:26.420Z,37.69
2023-04-30T11:40:55.120Z,37.86
2023-04-30T11:43:32.050Z,37.31
2023-04-30T11:46:11.662Z,37.25
2023-04-30T11:48:41.126Z,38.06
2023-04-30T11:51:22.214Z,37.39
2023-04-30T11:53:51.830Z,37.79
2023-04-30T11:56:24.410Z,37.41
2023-04-30T11:58:57.767Z,37.50
2023-04-30T12:01:28.845Z,37.77
2023-04-30T12:03:57.543Z,37.86
2023-04-30T12:06:29.342Z,37.48
2023-04-30T12:08:58.380Z,37.58
2023-04-30T12:11:28.072Z,37.58
2023-04-30T12:13:57.045Z,37.81
2023-04-30T12:16:26.038Z,37.70
2023-04-30T12:18:53.268Z,37.98
2023-04-30T12:21:23.313Z,37.80
2023-04-30T12:23:50.883Z,37.84
2023-04-30T12:26:17.990Z,38.15
2023-04-30T12:28:47.813Z,38.35
2023-04-30T12:31:14.923Z,38.71
2023-04-30T12:33:42.213Z,38.91
2023-04-30T12:36:13.442Z,39.09
2023-04-30T12:38:44.170Z,39.01
2023-04-30T12:41:15.565Z,39.14
2023-04-30T12:43:42.620Z,39.35
2023-04-30T12:46:09.642Z,39.35
2023-04-30T12:48:45.942Z,39.48
2023-04-30T12:51:13.174Z,39.69
2023-04-30T12:53:47.085Z,39.32
2023-04-30T12:56:17.921Z,39.63
2023-04-30T12:58:47.691Z,39.48
2023-04-30T13:01:19.596Z,39.89
2023-04-30T13:03:47.075Z,39.94
2023-04-30T13:06:14.548Z,39.73
2023-04-30T13:08:56.185Z,39.76
2023-04-30T13:11:26.443Z,40.13
2023-04-30T13:13:57.260Z,39.76
2023-04-30T13:16:27.512Z,39.85
2023-04-30T13:18:55.171Z,40.10
2023-04-30T13:21:22.725Z,40.30
2023-04-30T13:23:53.717Z,40.01
2023-04-30T13:26:23.613Z,40.18
2023-04-30T13:28:51.359Z,40.73
2023-04-30T13:31:18.788Z,40.46
2023-04-30T13:33:45.836Z,40.85
2023-04-30T13:36:12.977Z,40.97
2023-04-30T13:38:40.169Z,40.92
2023-04-30T13:41:07.267Z,40.85
2023-04-30T13:43:34.488Z,41.10
2023-04-30T13:46:02.077Z,40.86
2023-04-30T13:48:29.429Z,41.07
2023-04-30T13:50:56.667Z,41.00
2023-04-30T13:53:23.702Z,41.21
2023-04-30T13:55:50.842Z,41.52
2023-04-30T13:58:18.204Z,41.69
2023-04-30T14:00:45.312Z,41.89
2023-04-30T14:03:12.812Z,41.99
2023-04-30T14:05:40.010Z,41.93
2023-04-30T14:08:07.001Z,42.18
2023-04-30T14:10:34.088Z,42.39
2023-04-30T14:13:01.065Z,42.33
2023-04-30T14:15:30.702Z,42.96
2023-04-30T14:17:58.153Z,42.96
2023-04-30T14:20:25.721Z,43.00
2023-04-30T14:22:53.133Z,43.23
2023-04-30T14:25:20.458Z,42.62
2023-04-30T14:27:47.729Z,43.47
2023-04-30T14:30:14.929Z,43.73
2023-04-30T14:32:41.943Z,42.75
2023-04-30T14:35:09.978Z,43.94
2023-04-30T14:37:37.155Z,43.52
2023-04-30T14:40:06.925Z,43.73
2023-04-30T14:42:34.067Z,43.83
2023-04-30T14:45:01.226Z,43.87
2023-04-30T14:47:28.686Z,43.72
2023-04-30T14:49:56.052Z,44.20
2023-04-30T14:52:23.312Z,44.20
2023-04-30T14:54:50.352Z,43.44
2023-04-30T14:57:18.745Z,43.87
2023-04-30T14:59:45.807Z,43.81
2023-04-30T15:02:12.843Z,44.14
2023-04-30T15:04:40.138Z,44.09
2023-04-30T15:07:07.523Z,45.01
2023-04-30T15:09:34.665Z,45.07
2023-04-30T15:12:01.947Z,45.32
2023-04-30T15:14:28.906Z,45.47
2023-04-30T15:16:56.647Z,45.13
2023-04-30T15:19:24.482Z,45.42
2023-04-30T15:21:52.479Z,45.73
2023-04-30T15:24:19.450Z,46.03
2023-04-30T15:26:46.492Z,45.48
2023-04-30T15:29:13.520Z,45.99
2023-04-30T15:31:40.581Z,46.27
2023-04-30T15:34:07.726Z,46.37
2023-04-30T15:36:35.135Z,46.16
2023-04-30T15:39:02.143Z,46.74
2023-04-30T15:41:29.347Z,46.46
2023-04-30T15:43:56.669Z,47.06
2023-04-30T15:46:23.853Z,47.11
2023-04-30T15:48:51.230Z,47.19
2023-04-30T15:51:18.330Z,47.50
2023-04-30T15:53:45.462Z,47.53
2023-04-30T15:56:12.562Z,47.64
2023-04-30T15:58:40.545Z,47.69
2023-04-30T16:01:07.472Z,48.41
2023-04-30T16:03:34.692Z,48.60
2023-04-30T16:06:02.943Z,48.84
2023-04-30T16:08:30.795Z,49.18
2023-04-30T16:10:57.966Z,48.87
2023-04-30T16:13:24.986Z,49.57
2023-04-30T16:15:52.134Z,49.70
2023-04-30T16:18:19.156Z,50.22
2023-04-30T16:20:48.800Z,50.90
2023-04-30T16:23:16.774Z,50.67
2023-04-30T16:25:43.811Z,50.63
2023-04-30T16:28:11.082Z,51.58
2023-04-30T16:30:38.399Z,51.82
2023-04-30T16:33:07.162Z,52.45
2023-04-30T16:35:34.210Z,52.33
2023-04-30T16:38:02.671Z,52.50
2023-04-30T16:40:29.802Z,52.91
2023-04-30T16:42:56.823Z,53.11
2023-04-30T16:45:24.302Z,53.30
2023-04-30T16:47:51.385Z,53.58
2023-04-30T16:50:18.530Z,53.65
2023-04-30T16:52:45.981Z,53.88
2023-04-30T16:55:13.382Z,54.10
2023-04-30T16:57:40.403Z,54.13
2023-04-30T17:00:08.728Z,54.78
2023-04-30T17:02:35.887Z,54.59
2023-04-30T17:05:03.111Z,54.97
2023-04-30T17:07:30.453Z,55.19
2023-04-30T17:09:57.788Z,55.28
2023-04-30T17:12:25.019Z,55.78
2023-04-30T17:14:52.353Z,56.70
2023-04-30T17:17:19.628Z,56.55
2023-04-30T17:19:46.720Z,56.96
2023-04-30T17:22:14.331Z,57.39
2023-04-30T17:24:41.624Z,58.04
2023-04-30T17:27:08.623Z,58.30
2023-04-30T17:29:35.910Z,58.83
2023-04-30T17:32:03.179Z,59.09
2023-04-30T17:34:31.644Z,59.60
2023-04-30T17:36:58.893Z,59.83
2023-04-30T17:39:25.876Z,60.31
2023-04-30T17:41:52.831Z,60.58
2023-04-30T17:44:19.897Z,60.68
2023-04-30T17:46:47.604Z,60.84
2023-04-30T17:49:14.703Z,61.28
2023-04-30T17:51:41.802Z,61.19
2023-04-30T17:54:08.886Z,61.60
2023-04-30T17:56:36.397Z,61.84
2023-04-30T17:59:03.684Z,61.93
2023-04-30T18:01:31.585Z,62.34
2023-04-30T18:04:00.108Z,61.94
2023-04-30T18:06:28.168Z,62.60
2023-04-30T18:08:55.691Z,62.86
2023-04-30T18:11:23.371Z,62.88
2023-04-30T18:13:50.347Z,63.25
2023-04-30T18:16:17.355Z,63.30
2023-04-30T18:18:44.513Z,63.48
2023-04-30T18:21:11.478Z,64.08
2023-04-30T18:23:38.478Z,63.95
2023-04-30T18:26:06.206Z,64.22
2023-04-30T18:28:34.036Z,64.31
2023-04-30T18:31:01.131Z,64.87
2023-04-30T18:33:28.208Z,65.32
2023-04-30T18:35:57.206Z,65.28
2023-04-30T18:38:24.673Z,65.52
2023-04-30T18:40:55.938Z,65.87
2023-04-30T18:43:23.652Z,65.51
2023-04-30T18:45:51.441Z,65.62
2023-04-30T18:48:19.512Z,66.17
2023-04-30T18:50:46.950Z,66.24
2023-04-30T18:53:14.153Z,66.46
2023-04-30T18:55:41.910Z,66.62
2023-04-30T18:58:09.237Z,66.23
2023-04-30T19:00:36.572Z,66.55
2023-04-30T19:03:04.035Z,66.52
2023-04-30T19:05:32.443Z,66.24
2023-04-30T19:07:59.487Z,66.97
2023-04-30T19:10:26.527Z,66.58
2023-04-30T19:12:53.561Z,67.02
2023-04-30T19:15:20.624Z,67.05
2023-04-30T19:17:47.750Z,67.14
2023-04-30T19:20:14.717Z,67.36
2023-04-30T19:22:42.133Z,66.96
2023-04-30T19:25:10.089Z,67.25
2023-04-30T19:27:37.595Z,67.63
2023-04-30T19:30:05.319Z,67.93
2023-04-30T19:32:32.526Z,67.52
2023-04-30T19:34:59.515Z,67.81
2023-04-30T19:37:26.908Z,67.79
2023-04-30T19:39:54.129Z,68.19
2023-04-30T19:42:21.300Z,68.07
2023-04-30T19:44:52.298Z,69.07
2023-04-30T19:47:19.557Z,68.49
2023-04-30T19:49:47.486Z,68.39
2023-04-30T19:52:14.965Z,68.73
2023-04-30T19:54:48.562Z,68.94
2023-04-30T19:57:17.126Z,68.82
2023-04-30T19:59:44.589Z,68.62
2023-04-30T20:02:12.240Z,68.71
2023-04-30T20:04:39.505Z,68.71
2023-04-30T20:07:06.716Z,69.03
2023-04-30T20:09:33.955Z,69.26
2023-04-30T20:12:03.744Z,68.95
2023-04-30T20:14:31.062Z,69.29
2023-04-30T20:16:58.545Z,69.45
2023-04-30T20:19:26.168Z,69.56
2023-04-30T20:21:54.255Z,69.29
2023-04-30T20:24:22.130Z,69.39
2023-04-30T20:26:49.267Z,69.23
2023-04-30T20:29:17.361Z,69.42
2023-04-30T20:31:44.339Z,69.34
2023-04-30T20:34:11.315Z,69.97
2023-04-30T20:36:38.858Z,69.86
2023-04-30T20:39:05.869Z,70.53
2023-04-30T20:41:32.841Z,70.00
2023-04-30T20:44:00.793Z,70.07
2023-04-30T20:46:28.609Z,70.38
2023-04-30T20:49:01.415Z,70.19
2023-04-30T20:51:28.742Z,70.53
2023-04-30T20:53:55.805Z,70.77
2023-04-30T20:56:23.156Z,70.27
2023-04-30T20:58:50.068Z,70.37
2023-04-30T21:01:17.273Z,71.02
2023-04-30T21:03:44.283Z,71.12
2023-04-30T21:06:11.623Z,71.31
2023-04-30T21:08:38.693Z,70.80
2023-04-30T21:11:05.622Z,70.71
2023-04-30T21:13:32.917Z,71.07
2023-04-30T21:15:59.998Z,71.65
2023-04-30T21:18:27.734Z,71.35
2023-04-30T21:21:01.619Z,71.42
2023-04-30T21:23:30.053Z,71.08
2023-04-30T21:25:57.176Z,71.19
2023-04-30T21:28:24.521Z,71.49
2023-04-30T21:30:52.058Z,71.20
2023-04-30T21:33:19.342Z,71.61
2023-04-30T21:35:46.459Z,71.12
2023-04-30T21:38:13.856Z,70.99
2023-04-30T21:40:43.279Z,71.71
2023-04-30T21:43:10.516Z,71.27
2023-04-30T21:45:37.495Z,71.44
2023-04-30T21:48:05.688Z,71.01
2023-04-30T21:50:33.756Z,70.98
2023-04-30T21:53:03.191Z,71.41
2023-04-30T21:55:30.225Z,71.29
2023-04-30T21:57:57.664Z,71.32
2023-04-30T22:00:24.912Z,71.49
2023-04-30T22:02:51.932Z,71.47
2023-04-30T22:05:19.888Z,71.50
2023-04-30T22:07:47.536Z,71.59
2023-04-30T22:10:17.711Z,71.50
2023-04-30T22:12:47.330Z,71.14
2023-04-30T22:15:15.496Z,71.80
2023-04-30T22:17:42.651Z,71.59
2023-04-30T22:20:10.215Z,71.49
2023-04-30T22:22:37.259Z,71.79
2023-04-30T22:25:04.766Z,71.71
2023-04-30T22:27:32.223Z,71.91
2023-04-30T22:29:59.377Z,71.57
2023-04-30T22:32:26.628Z,71.88
2023-04-30T22:34:53.767Z,71.50
2023-04-30T22:37:20.947Z,72.16
2023-04-30T22:39:48.558Z,72.44
2023-04-30T22:42:17.019Z,72.11
2023-04-30T22:44:45.509Z,72.40
2023-04-30T22:47:12.720Z,71.85
2023-04-30T22:49:40.128Z,72.45
2023-04-30T22:52:07.386Z,72.48
2023-04-30T22:54:35.430Z,72.50
2023-04-30T22:57:03.138Z,72.77
2023-04-30T22:59:30.241Z,72.73
2023-04-30T23:01:57.441Z,73.01
2023-04-30T23:04:24.675Z,72.80
2023-04-30T23:06:51.614Z,73.16
2023-04-30T23:09:19.355Z,73.09
2023-04-30T23:11:46.332Z,73.31
2023-04-30T23:14:13.237Z,73.22
2023-04-30T23:16:42.745Z,73.75
2023-04-30T23:19:10.510Z,73.79
2023-04-30T23:21:37.599Z,73.65
2023-04-30T23:24:04.544Z,73.93
2023-04-30T23:26:31.637Z,73.75
2023-04-30T23:28:58.773Z,73.37
2023-04-30T23:31:25.886Z,73.94
2023-04-30T23:33:52.987Z,74.27
2023-04-30T23:36:20.072Z,73.79
2023-04-30T23:38:47.007Z,74.53
2023-04-30T23:41:14.579Z,74.20
2023-04-30T23:43:41.591Z,74.48
2023-04-30T23:46:08.850Z,74.81
2023-04-30T23:48:36.160Z,74.24
2023-04-30T23:51:08.434Z,74.19
2023-04-30T23:53:35.759Z,74.64
2023-04-30T23:56:03.066Z,75.04
2023-04-30T23:58:32.802Z,74.29
